This is the latest recevied weather packets stored in our database for station/object IW1RID-3. If no packets are shown the sender has not sent any weather packets the latest 10 day(s).
| Time | Temp. | Humidity | Pressure | Rain* | Wind** | Luminosity | Snow |
|---|---|---|---|---|---|---|---|
| 1777247876 | 15.56° C | 82% | 1078 hPa | - | - | - | - |
| 1777246672 | 15.56° C | 81% | 1078.1 hPa | - | - | - | - |
| 1777245467 | 16.11° C | 80% | 1078.1 hPa | - | - | - | - |
| 1777243059 | 16.11° C | 77% | 1077.8 hPa | - | - | - | - |
| 1777241854 | 16.67° C | 78% | 1077.9 hPa | - | - | - | - |
| 1777240650 | 16.11° C | 77% | 1078 hPa | - | - | - | - |
| 1777239446 | 16.11° C | 76% | 1078 hPa | - | - | - | - |
| 1777238242 | 16.11° C | 77% | 1078.1 hPa | - | - | - | - |
| 1777237037 | 16.67° C | 76% | 1078.1 hPa | - | - | - | - |
| 1777235832 | 16.67° C | 77% | 1078.1 hPa | - | - | - | - |
| 1777234628 | 16.67° C | 76% | 1078.2 hPa | - | - | - | - |
| 1777233423 | 16.67° C | 76% | 1078 hPa | - | - | - | - |
| 1777232218 | 16.67° C | 74% | 1077.8 hPa | - | - | - | - |
| 1777231014 | 16.67° C | 73% | 1077.6 hPa | - | - | - | - |
| 1777229804 | 16.67° C | 73% | 1077.4 hPa | - | - | - | - |
| 1777228600 | 17.22° C | 72% | 1077.3 hPa | - | - | - | - |
| 1777227395 | 17.22° C | 70% | 1077.3 hPa | - | - | - | - |
| 1777226190 | 17.22° C | 70% | 1077.2 hPa | - | - | - | - |
| 1777224986 | 17.22° C | 70% | 1077.2 hPa | - | - | - | - |
| 1777223783 | 16.67° C | 72% | 1077.2 hPa | - | - | - | - |
| 1777222578 | 17.22° C | 72% | 1077.3 hPa | - | - | - | - |
| 1777221373 | 17.78° C | 73% | 1077.3 hPa | - | - | - | - |
| 1777220169 | 17.78° C | 70% | 1077.4 hPa | - | - | - | - |
| 1777218964 | 19.44° C | 63% | 1077.3 hPa | - | - | - | - |
| 1777217760 | 18.89° C | 67% | 1077.6 hPa | - | - | - | - |
* Rain since midnight (hover to see other rain measurements)
** Current wind speed in m/s (hover to see current wind gust speed)